sensor_id;sensor_type;location;lat;lon;timestamp;P1;durP1;ratioP1;P2;durP2;ratioP2
24273;SDS011;12392;42.678;23.380;2023-02-21T00:00:25;11.50;;;4.88;;
24273;SDS011;12392;42.678;23.380;2023-02-21T00:03:09;10.05;;;4.47;;
24273;SDS011;12392;42.678;23.380;2023-02-21T00:05:53;12.85;;;4.63;;
24273;SDS011;12392;42.678;23.380;2023-02-21T00:08:37;11.88;;;4.60;;
24273;SDS011;12392;42.678;23.380;2023-02-21T00:11:21;10.35;;;4.45;;
24273;SDS011;12392;42.678;23.380;2023-02-21T00:14:05;10.30;;;4.53;;
24273;SDS011;12392;42.678;23.380;2023-02-21T00:16:49;11.45;;;5.30;;
24273;SDS011;12392;42.678;23.380;2023-02-21T00:19:34;10.05;;;3.90;;
24273;SDS011;12392;42.678;23.380;2023-02-21T00:22:18;7.43;;;3.92;;
24273;SDS011;12392;42.678;23.380;2023-02-21T00:25:02;11.05;;;4.63;;
24273;SDS011;12392;42.678;23.380;2023-02-21T00:27:46;9.90;;;3.90;;
24273;SDS011;12392;42.678;23.380;2023-02-21T00:30:30;12.00;;;4.35;;
24273;SDS011;12392;42.678;23.380;2023-02-21T00:33:14;8.88;;;3.63;;
24273;SDS011;12392;42.678;23.380;2023-02-21T00:35:58;9.65;;;4.20;;
24273;SDS011;12392;42.678;23.380;2023-02-21T00:38:42;8.75;;;4.32;;
24273;SDS011;12392;42.678;23.380;2023-02-21T00:41:27;7.53;;;3.80;;
24273;SDS011;12392;42.678;23.380;2023-02-21T00:44:11;6.97;;;4.15;;
24273;SDS011;12392;42.678;23.380;2023-02-21T00:46:55;13.82;;;4.10;;
24273;SDS011;12392;42.678;23.380;2023-02-21T00:49:39;9.30;;;4.10;;
24273;SDS011;12392;42.678;23.380;2023-02-21T00:52:23;12.35;;;4.20;;
24273;SDS011;12392;42.678;23.380;2023-02-21T00:55:07;6.53;;;3.72;;
24273;SDS011;12392;42.678;23.380;2023-02-21T00:57:51;10.95;;;4.47;;
24273;SDS011;12392;42.678;23.380;2023-02-21T01:00:36;13.40;;;4.57;;
24273;SDS011;12392;42.678;23.380;2023-02-21T01:03:19;8.95;;;4.43;;
24273;SDS011;12392;42.678;23.380;2023-02-21T01:06:07;10.65;;;4.40;;
24273;SDS011;12392;42.678;23.380;2023-02-21T01:08:52;9.40;;;4.03;;
24273;SDS011;12392;42.678;23.380;2023-02-21T01:11:36;10.00;;;4.60;;
24273;SDS011;12392;42.678;23.380;2023-02-21T01:14:21;9.20;;;5.18;;
24273;SDS011;12392;42.678;23.380;2023-02-21T01:17:05;9.68;;;4.70;;
24273;SDS011;12392;42.678;23.380;2023-02-21T01:19:49;11.38;;;4.22;;
24273;SDS011;12392;42.678;23.380;2023-02-21T01:22:33;7.82;;;4.07;;
24273;SDS011;12392;42.678;23.380;2023-02-21T01:25:17;10.48;;;4.68;;
24273;SDS011;12392;42.678;23.380;2023-02-21T01:28:01;9.07;;;4.40;;
24273;SDS011;12392;42.678;23.380;2023-02-21T01:30:45;10.02;;;4.20;;
24273;SDS011;12392;42.678;23.380;2023-02-21T01:33:33;11.30;;;4.20;;
24273;SDS011;12392;42.678;23.380;2023-02-21T01:36:22;11.50;;;4.37;;
24273;SDS011;12392;42.678;23.380;2023-02-21T01:39:06;8.95;;;3.80;;
24273;SDS011;12392;42.678;23.380;2023-02-21T01:41:50;9.38;;;4.00;;
24273;SDS011;12392;42.678;23.380;2023-02-21T01:44:39;8.43;;;4.10;;
24273;SDS011;12392;42.678;23.380;2023-02-21T01:47:24;7.95;;;3.55;;
24273;SDS011;12392;42.678;23.380;2023-02-21T01:53:12;9.05;;;3.40;;
24273;SDS011;12392;42.678;23.380;2023-02-21T01:55:58;6.65;;;3.25;;
24273;SDS011;12392;42.678;23.380;2023-02-21T01:58:43;7.13;;;3.33;;
24273;SDS011;12392;42.678;23.380;2023-02-21T02:01:31;7.57;;;3.55;;
24273;SDS011;12392;42.678;23.380;2023-02-21T02:04:36;7.13;;;3.03;;
24273;SDS011;12392;42.678;23.380;2023-02-21T02:07:20;7.15;;;3.28;;
24273;SDS011;12392;42.678;23.380;2023-02-21T02:10:05;3.65;;;2.25;;
24273;SDS011;12392;42.678;23.380;2023-02-21T02:16:00;5.28;;;2.70;;
24273;SDS011;12392;42.678;23.380;2023-02-21T02:18:41;7.47;;;2.97;;
24273;SDS011;12392;42.678;23.380;2023-02-21T02:45:48;6.05;;;2.35;;
24273;SDS011;12392;42.678;23.380;2023-02-21T02:48:24;8.32;;;2.25;;
24273;SDS011;12392;42.678;23.380;2023-02-21T02:50:59;2.83;;;2.15;;
24273;SDS011;12392;42.678;23.380;2023-02-21T02:53:27;11.32;;;2.33;;
24273;SDS011;12392;42.678;23.380;2023-02-21T02:55:58;8.35;;;2.35;;
24273;SDS011;12392;42.678;23.380;2023-02-21T02:58:26;2.95;;;1.92;;
24273;SDS011;12392;42.678;23.380;2023-02-21T03:09:08;5.93;;;2.45;;
24273;SDS011;12392;42.678;23.380;2023-02-21T03:14:25;6.35;;;2.78;;
24273;SDS011;12392;42.678;23.380;2023-02-21T03:16:54;4.38;;;2.10;;
24273;SDS011;12392;42.678;23.380;2023-02-21T03:19:25;5.90;;;2.72;;
24273;SDS011;12392;42.678;23.380;2023-02-21T03:21:54;5.45;;;2.25;;
24273;SDS011;12392;42.678;23.380;2023-02-21T03:24:23;7.70;;;2.53;;
24273;SDS011;12392;42.678;23.380;2023-02-21T03:26:50;5.78;;;2.92;;
24273;SDS011;12392;42.678;23.380;2023-02-21T03:29:18;5.68;;;2.55;;
24273;SDS011;12392;42.678;23.380;2023-02-21T03:31:46;4.55;;;2.30;;
24273;SDS011;12392;42.678;23.380;2023-02-21T03:34:15;4.47;;;2.33;;
24273;SDS011;12392;42.678;23.380;2023-02-21T03:36:41;3.95;;;2.22;;
24273;SDS011;12392;42.678;23.380;2023-02-21T03:39:07;4.50;;;2.20;;
24273;SDS011;12392;42.678;23.380;2023-02-21T03:41:33;4.15;;;2.45;;
24273;SDS011;12392;42.678;23.380;2023-02-21T03:43:58;4.70;;;2.08;;
24273;SDS011;12392;42.678;23.380;2023-02-21T03:46:24;6.47;;;2.10;;
24273;SDS011;12392;42.678;23.380;2023-02-21T03:48:50;3.70;;;2.05;;
24273;SDS011;12392;42.678;23.380;2023-02-21T03:51:15;7.32;;;2.40;;
24273;SDS011;12392;42.678;23.380;2023-02-21T03:53:41;1.80;;;1.42;;
24273;SDS011;12392;42.678;23.380;2023-02-21T03:56:07;4.28;;;2.28;;
24273;SDS011;12392;42.678;23.380;2023-02-21T03:58:32;6.32;;;2.78;;
24273;SDS011;12392;42.678;23.380;2023-02-21T04:00:58;5.10;;;1.98;;
24273;SDS011;12392;42.678;23.380;2023-02-21T04:03:24;4.68;;;1.90;;
24273;SDS011;12392;42.678;23.380;2023-02-21T04:05:50;3.33;;;2.10;;
24273;SDS011;12392;42.678;23.380;2023-02-21T04:08:15;5.55;;;1.80;;
24273;SDS011;12392;42.678;23.380;2023-02-21T04:10:41;4.30;;;2.10;;
24273;SDS011;12392;42.678;23.380;2023-02-21T04:13:07;6.13;;;2.08;;
24273;SDS011;12392;42.678;23.380;2023-02-21T04:15:33;8.02;;;2.83;;
24273;SDS011;12392;42.678;23.380;2023-02-21T04:17:59;6.13;;;2.75;;
24273;SDS011;12392;42.678;23.380;2023-02-21T04:20:24;6.93;;;2.22;;
24273;SDS011;12392;42.678;23.380;2023-02-21T04:22:50;4.70;;;2.05;;
24273;SDS011;12392;42.678;23.380;2023-02-21T04:25:16;5.57;;;2.53;;
24273;SDS011;12392;42.678;23.380;2023-02-21T04:27:41;4.00;;;2.03;;
24273;SDS011;12392;42.678;23.380;2023-02-21T04:30:07;5.43;;;2.35;;
24273;SDS011;12392;42.678;23.380;2023-02-21T04:32:34;12.20;;;3.03;;
24273;SDS011;12392;42.678;23.380;2023-02-21T04:34:59;8.30;;;3.90;;
24273;SDS011;12392;42.678;23.380;2023-02-21T04:37:25;6.93;;;3.67;;
24273;SDS011;12392;42.678;23.380;2023-02-21T04:39:51;7.32;;;3.45;;
24273;SDS011;12392;42.678;23.380;2023-02-21T04:42:16;4.10;;;2.47;;
24273;SDS011;12392;42.678;23.380;2023-02-21T04:44:42;4.95;;;2.38;;
24273;SDS011;12392;42.678;23.380;2023-02-21T04:47:08;6.80;;;2.78;;
24273;SDS011;12392;42.678;23.380;2023-02-21T04:49:33;6.05;;;2.28;;
24273;SDS011;12392;42.678;23.380;2023-02-21T04:51:59;7.82;;;2.63;;
24273;SDS011;12392;42.678;23.380;2023-02-21T04:54:24;9.48;;;2.00;;
24273;SDS011;12392;42.678;23.380;2023-02-21T04:56:50;5.82;;;2.17;;
24273;SDS011;12392;42.678;23.380;2023-02-21T04:59:16;3.72;;;2.35;;
24273;SDS011;12392;42.678;23.380;2023-02-21T05:01:42;4.93;;;2.60;;
24273;SDS011;12392;42.678;23.380;2023-02-21T05:04:07;4.82;;;2.10;;
24273;SDS011;12392;42.678;23.380;2023-02-21T05:06:33;9.45;;;2.78;;
24273;SDS011;12392;42.678;23.380;2023-02-21T05:08:59;2.47;;;1.70;;
24273;SDS011;12392;42.678;23.380;2023-02-21T05:11:25;5.47;;;2.10;;
24273;SDS011;12392;42.678;23.380;2023-02-21T05:13:51;12.55;;;2.63;;
24273;SDS011;12392;42.678;23.380;2023-02-21T05:16:17;3.85;;;2.08;;
24273;SDS011;12392;42.678;23.380;2023-02-21T05:18:44;14.50;;;2.53;;
24273;SDS011;12392;42.678;23.380;2023-02-21T05:21:11;5.45;;;2.65;;
24273;SDS011;12392;42.678;23.380;2023-02-21T05:23:37;3.15;;;2.17;;
24273;SDS011;12392;42.678;23.380;2023-02-21T05:26:13;7.07;;;2.90;;
24273;SDS011;12392;42.678;23.380;2023-02-21T05:28:39;10.23;;;2.38;;
24273;SDS011;12392;42.678;23.380;2023-02-21T05:31:05;10.80;;;3.20;;
24273;SDS011;12392;42.678;23.380;2023-02-21T05:33:31;5.93;;;2.38;;
24273;SDS011;12392;42.678;23.380;2023-02-21T05:35:57;9.48;;;3.25;;
24273;SDS011;12392;42.678;23.380;2023-02-21T05:38:23;10.52;;;3.05;;
24273;SDS011;12392;42.678;23.380;2023-02-21T05:40:49;11.48;;;2.85;;
24273;SDS011;12392;42.678;23.380;2023-02-21T05:43:15;9.20;;;2.70;;
24273;SDS011;12392;42.678;23.380;2023-02-21T05:45:41;18.45;;;4.28;;
24273;SDS011;12392;42.678;23.380;2023-02-21T05:48:07;6.32;;;3.30;;
24273;SDS011;12392;42.678;23.380;2023-02-21T05:50:32;8.70;;;3.88;;
24273;SDS011;12392;42.678;23.380;2023-02-21T05:52:58;9.45;;;3.65;;
24273;SDS011;12392;42.678;23.380;2023-02-21T05:55:24;10.52;;;3.85;;
24273;SDS011;12392;42.678;23.380;2023-02-21T05:57:51;10.95;;;4.68;;
24273;SDS011;12392;42.678;23.380;2023-02-21T06:02:48;9.60;;;4.13;;
24273;SDS011;12392;42.678;23.380;2023-02-21T06:05:19;8.77;;;4.35;;
24273;SDS011;12392;42.678;23.380;2023-02-21T06:07:46;6.63;;;3.15;;
24273;SDS011;12392;42.678;23.380;2023-02-21T06:10:12;9.65;;;3.88;;
24273;SDS011;12392;42.678;23.380;2023-02-21T06:12:38;6.75;;;3.55;;
24273;SDS011;12392;42.678;23.380;2023-02-21T06:15:04;7.10;;;3.22;;
24273;SDS011;12392;42.678;23.380;2023-02-21T06:17:40;8.18;;;3.60;;
24273;SDS011;12392;42.678;23.380;2023-02-21T06:20:07;8.38;;;2.88;;
24273;SDS011;12392;42.678;23.380;2023-02-21T06:22:40;6.00;;;3.40;;
24273;SDS011;12392;42.678;23.380;2023-02-21T06:25:06;11.57;;;4.13;;
24273;SDS011;12392;42.678;23.380;2023-02-21T06:27:32;6.47;;;3.75;;
24273;SDS011;12392;42.678;23.380;2023-02-21T06:29:58;14.40;;;3.95;;
24273;SDS011;12392;42.678;23.380;2023-02-21T06:32:23;9.48;;;4.90;;
24273;SDS011;12392;42.678;23.380;2023-02-21T06:34:49;10.45;;;4.07;;
24273;SDS011;12392;42.678;23.380;2023-02-21T06:37:16;6.32;;;3.00;;
24273;SDS011;12392;42.678;23.380;2023-02-21T06:39:42;9.52;;;3.28;;
24273;SDS011;12392;42.678;23.380;2023-02-21T06:42:11;10.05;;;3.25;;
24273;SDS011;12392;42.678;23.380;2023-02-21T06:44:38;7.20;;;2.50;;
24273;SDS011;12392;42.678;23.380;2023-02-21T06:47:03;7.82;;;2.60;;
24273;SDS011;12392;42.678;23.380;2023-02-21T06:49:29;14.27;;;3.42;;
24273;SDS011;12392;42.678;23.380;2023-02-21T06:51:55;10.50;;;3.17;;
24273;SDS011;12392;42.678;23.380;2023-02-21T06:54:20;8.68;;;3.50;;
24273;SDS011;12392;42.678;23.380;2023-02-21T06:56:46;7.63;;;3.03;;
24273;SDS011;12392;42.678;23.380;2023-02-21T06:59:12;10.52;;;2.88;;
24273;SDS011;12392;42.678;23.380;2023-02-21T07:01:37;4.93;;;2.70;;
24273;SDS011;12392;42.678;23.380;2023-02-21T07:04:03;12.93;;;3.67;;
24273;SDS011;12392;42.678;23.380;2023-02-21T07:06:29;4.95;;;2.72;;
24273;SDS011;12392;42.678;23.380;2023-02-21T07:08:55;7.68;;;2.95;;
24273;SDS011;12392;42.678;23.380;2023-02-21T07:11:21;8.55;;;4.15;;
24273;SDS011;12392;42.678;23.380;2023-02-21T07:13:50;7.45;;;3.10;;
24273;SDS011;12392;42.678;23.380;2023-02-21T07:16:17;10.00;;;3.20;;
24273;SDS011;12392;42.678;23.380;2023-02-21T07:18:43;9.20;;;3.67;;
24273;SDS011;12392;42.678;23.380;2023-02-21T07:21:10;11.50;;;5.05;;
24273;SDS011;12392;42.678;23.380;2023-02-21T07:23:36;31.15;;;13.18;;
24273;SDS011;12392;42.678;23.380;2023-02-21T07:26:01;16.45;;;7.32;;
24273;SDS011;12392;42.678;23.380;2023-02-21T07:28:27;10.13;;;3.40;;
24273;SDS011;12392;42.678;23.380;2023-02-21T07:30:53;8.20;;;2.70;;
24273;SDS011;12392;42.678;23.380;2023-02-21T07:33:19;6.07;;;2.60;;
24273;SDS011;12392;42.678;23.380;2023-02-21T07:35:44;7.47;;;2.53;;
24273;SDS011;12392;42.678;23.380;2023-02-21T07:38:18;8.50;;;3.55;;
24273;SDS011;12392;42.678;23.380;2023-02-21T07:40:45;15.73;;;6.57;;
24273;SDS011;12392;42.678;23.380;2023-02-21T07:43:10;14.00;;;3.33;;
24273;SDS011;12392;42.678;23.380;2023-02-21T07:45:36;8.18;;;2.42;;
24273;SDS011;12392;42.678;23.380;2023-02-21T07:48:02;10.07;;;2.83;;
24273;SDS011;12392;42.678;23.380;2023-02-21T07:50:28;4.65;;;2.17;;
24273;SDS011;12392;42.678;23.380;2023-02-21T07:52:54;7.50;;;2.50;;
24273;SDS011;12392;42.678;23.380;2023-02-21T07:55:20;6.97;;;3.75;;
24273;SDS011;12392;42.678;23.380;2023-02-21T07:57:46;7.68;;;3.60;;
24273;SDS011;12392;42.678;23.380;2023-02-21T08:00:12;9.82;;;2.88;;
24273;SDS011;12392;42.678;23.380;2023-02-21T08:02:38;11.20;;;4.70;;
24273;SDS011;12392;42.678;23.380;2023-02-21T08:05:05;8.13;;;4.07;;
24273;SDS011;12392;42.678;23.380;2023-02-21T08:07:31;8.10;;;4.20;;
24273;SDS011;12392;42.678;23.380;2023-02-21T08:09:57;7.72;;;3.28;;
24273;SDS011;12392;42.678;23.380;2023-02-21T08:12:23;10.40;;;3.17;;
24273;SDS011;12392;42.678;23.380;2023-02-21T08:14:48;4.05;;;2.08;;
24273;SDS011;12392;42.678;23.380;2023-02-21T08:17:14;8.23;;;2.20;;
24273;SDS011;12392;42.678;23.380;2023-02-21T08:19:40;9.63;;;3.10;;
24273;SDS011;12392;42.678;23.380;2023-02-21T08:22:05;10.73;;;3.70;;
24273;SDS011;12392;42.678;23.380;2023-02-21T08:24:31;10.55;;;2.85;;
24273;SDS011;12392;42.678;23.380;2023-02-21T08:26:57;7.53;;;3.60;;
24273;SDS011;12392;42.678;23.380;2023-02-21T08:29:22;7.13;;;2.78;;
24273;SDS011;12392;42.678;23.380;2023-02-21T08:31:48;7.22;;;3.17;;
24273;SDS011;12392;42.678;23.380;2023-02-21T08:34:14;6.40;;;3.45;;
24273;SDS011;12392;42.678;23.380;2023-02-21T08:36:40;9.32;;;3.03;;
24273;SDS011;12392;42.678;23.380;2023-02-21T08:39:07;7.90;;;3.67;;
24273;SDS011;12392;42.678;23.380;2023-02-21T08:41:37;6.90;;;2.15;;
24273;SDS011;12392;42.678;23.380;2023-02-21T08:44:05;5.65;;;2.13;;
24273;SDS011;12392;42.678;23.380;2023-02-21T08:46:31;6.47;;;2.15;;
24273;SDS011;12392;42.678;23.380;2023-02-21T08:48:57;3.05;;;1.42;;
24273;SDS011;12392;42.678;23.380;2023-02-21T08:51:26;2.90;;;1.50;;
24273;SDS011;12392;42.678;23.380;2023-02-21T08:53:52;3.58;;;1.20;;
24273;SDS011;12392;42.678;23.380;2023-02-21T08:56:19;3.28;;;1.65;;
24273;SDS011;12392;42.678;23.380;2023-02-21T08:58:45;6.10;;;1.63;;
24273;SDS011;12392;42.678;23.380;2023-02-21T09:01:10;3.80;;;2.00;;
24273;SDS011;12392;42.678;23.380;2023-02-21T09:03:36;7.72;;;2.10;;
24273;SDS011;12392;42.678;23.380;2023-02-21T09:06:02;3.67;;;1.85;;
24273;SDS011;12392;42.678;23.380;2023-02-21T09:08:28;6.80;;;2.45;;
24273;SDS011;12392;42.678;23.380;2023-02-21T09:10:55;6.20;;;2.55;;
24273;SDS011;12392;42.678;23.380;2023-02-21T09:13:24;7.35;;;3.17;;
24273;SDS011;12392;42.678;23.380;2023-02-21T09:15:51;8.40;;;2.85;;
24273;SDS011;12392;42.678;23.380;2023-02-21T09:18:16;10.98;;;3.35;;
24273;SDS011;12392;42.678;23.380;2023-02-21T09:20:42;12.35;;;3.03;;
24273;SDS011;12392;42.678;23.380;2023-02-21T09:23:09;8.32;;;2.67;;
24273;SDS011;12392;42.678;23.380;2023-02-21T09:25:35;11.55;;;3.90;;
24273;SDS011;12392;42.678;23.380;2023-02-21T09:28:01;10.70;;;3.95;;
24273;SDS011;12392;42.678;23.380;2023-02-21T09:30:27;10.95;;;3.72;;
24273;SDS011;12392;42.678;23.380;2023-02-21T09:32:53;9.23;;;3.10;;
24273;SDS011;12392;42.678;23.380;2023-02-21T09:35:20;7.03;;;2.83;;
24273;SDS011;12392;42.678;23.380;2023-02-21T09:37:46;10.93;;;3.72;;
24273;SDS011;12392;42.678;23.380;2023-02-21T09:43:13;9.07;;;3.03;;
24273;SDS011;12392;42.678;23.380;2023-02-21T09:45:57;10.10;;;2.63;;
24273;SDS011;12392;42.678;23.380;2023-02-21T09:48:29;6.88;;;3.30;;
24273;SDS011;12392;42.678;23.380;2023-02-21T09:50:59;5.63;;;2.80;;
24273;SDS011;12392;42.678;23.380;2023-02-21T09:53:29;5.90;;;2.60;;
24273;SDS011;12392;42.678;23.380;2023-02-21T09:55:58;10.85;;;3.70;;
24273;SDS011;12392;42.678;23.380;2023-02-21T09:58:26;7.50;;;3.28;;
24273;SDS011;12392;42.678;23.380;2023-02-21T10:00:55;11.52;;;3.67;;
24273;SDS011;12392;42.678;23.380;2023-02-21T10:14:58;4.85;;;3.08;;
24273;SDS011;12392;42.678;23.380;2023-02-21T10:18:14;6.68;;;3.08;;
24273;SDS011;12392;42.678;23.380;2023-02-21T10:20:52;10.65;;;3.47;;
24273;SDS011;12392;42.678;23.380;2023-02-21T10:26:27;8.68;;;4.05;;
24273;SDS011;12392;42.678;23.380;2023-02-21T10:28:52;7.13;;;2.92;;
24273;SDS011;12392;42.678;23.380;2023-02-21T10:31:29;7.88;;;2.58;;
24273;SDS011;12392;42.678;23.380;2023-02-21T10:34:04;4.55;;;2.35;;
24273;SDS011;12392;42.678;23.380;2023-02-21T10:36:32;7.93;;;3.00;;
24273;SDS011;12392;42.678;23.380;2023-02-21T10:39:38;7.28;;;2.70;;
24273;SDS011;12392;42.678;23.380;2023-02-21T10:42:12;7.13;;;2.70;;
24273;SDS011;12392;42.678;23.380;2023-02-21T10:44:42;4.05;;;2.35;;
24273;SDS011;12392;42.678;23.380;2023-02-21T10:47:22;8.20;;;2.63;;
24273;SDS011;12392;42.678;23.380;2023-02-21T10:50:04;8.65;;;2.80;;
24273;SDS011;12392;42.678;23.380;2023-02-21T10:52:35;7.72;;;2.47;;
24273;SDS011;12392;42.678;23.380;2023-02-21T10:55:04;3.58;;;2.33;;
24273;SDS011;12392;42.678;23.380;2023-02-21T10:57:44;9.43;;;2.45;;
24273;SDS011;12392;42.678;23.380;2023-02-21T11:03:04;6.25;;;2.45;;
24273;SDS011;12392;42.678;23.380;2023-02-21T11:05:49;6.55;;;2.58;;
24273;SDS011;12392;42.678;23.380;2023-02-21T11:11:07;1.10;;;0.88;;
24273;SDS011;12392;42.678;23.380;2023-02-21T11:13:35;1.23;;;0.75;;
24273;SDS011;12392;42.678;23.380;2023-02-21T11:16:11;1.23;;;1.08;;
24273;SDS011;12392;42.678;23.380;2023-02-21T11:18:41;6.45;;;1.08;;
24273;SDS011;12392;42.678;23.380;2023-02-21T11:21:14;1.60;;;0.77;;
24273;SDS011;12392;42.678;23.380;2023-02-21T11:23:54;5.80;;;0.55;;
24273;SDS011;12392;42.678;23.380;2023-02-21T11:26:28;1.42;;;1.10;;
24273;SDS011;12392;42.678;23.380;2023-02-21T11:28:55;1.63;;;0.80;;
24273;SDS011;12392;42.678;23.380;2023-02-21T11:31:39;3.08;;;1.13;;
24273;SDS011;12392;42.678;23.380;2023-02-21T11:34:06;1.33;;;0.77;;
24273;SDS011;12392;42.678;23.380;2023-02-21T11:36:35;1.23;;;0.77;;
24273;SDS011;12392;42.678;23.380;2023-02-21T11:42:04;4.30;;;1.10;;
24273;SDS011;12392;42.678;23.380;2023-02-21T11:47:54;2.88;;;0.82;;
24273;SDS011;12392;42.678;23.380;2023-02-21T11:50:32;2.72;;;1.65;;
24273;SDS011;12392;42.678;23.380;2023-02-21T12:07:32;1.30;;;0.82;;
24273;SDS011;12392;42.678;23.380;2023-02-21T12:10:30;1.08;;;0.80;;
24273;SDS011;12392;42.678;23.380;2023-02-21T12:13:36;1.67;;;0.80;;
24273;SDS011;12392;42.678;23.380;2023-02-21T12:44:21;1.80;;;0.70;;
24273;SDS011;12392;42.678;23.380;2023-02-21T12:47:01;1.60;;;0.93;;
24273;SDS011;12392;42.678;23.380;2023-02-21T13:00:37;2.60;;;0.95;;
24273;SDS011;12392;42.678;23.380;2023-02-21T13:06:03;1.33;;;0.82;;
24273;SDS011;12392;42.678;23.380;2023-02-21T13:11:32;1.30;;;0.90;;
24273;SDS011;12392;42.678;23.380;2023-02-21T13:14:08;2.85;;;1.20;;
24273;SDS011;12392;42.678;23.380;2023-02-21T13:16:36;3.72;;;0.88;;
24273;SDS011;12392;42.678;23.380;2023-02-21T13:19:03;3.15;;;1.00;;
24273;SDS011;12392;42.678;23.380;2023-02-21T13:26:57;1.80;;;0.70;;
24273;SDS011;12392;42.678;23.380;2023-02-21T13:29:43;5.72;;;0.90;;
24273;SDS011;12392;42.678;23.380;2023-02-21T13:32:11;5.65;;;1.10;;
24273;SDS011;12392;42.678;23.380;2023-02-21T13:34:43;1.73;;;0.98;;
24273;SDS011;12392;42.678;23.380;2023-02-21T13:37:18;5.07;;;1.42;;
24273;SDS011;12392;42.678;23.380;2023-02-21T13:39:50;4.22;;;1.08;;
24273;SDS011;12392;42.678;23.380;2023-02-21T13:42:26;9.23;;;1.30;;
24273;SDS011;12392;42.678;23.380;2023-02-21T13:44:55;1.92;;;0.80;;
24273;SDS011;12392;42.678;23.380;2023-02-21T14:03:47;1.63;;;0.90;;
24273;SDS011;12392;42.678;23.380;2023-02-21T14:06:24;1.50;;;0.60;;
24273;SDS011;12392;42.678;23.380;2023-02-21T14:09:16;1.38;;;1.02;;
24273;SDS011;12392;42.678;23.380;2023-02-21T14:11:45;2.78;;;0.70;;
24273;SDS011;12392;42.678;23.380;2023-02-21T14:14:33;1.92;;;0.90;;
24273;SDS011;12392;42.678;23.380;2023-02-21T14:17:03;3.08;;;0.63;;
24273;SDS011;12392;42.678;23.380;2023-02-21T14:19:35;2.25;;;0.90;;
24273;SDS011;12392;42.678;23.380;2023-02-21T14:22:03;3.75;;;0.88;;
24273;SDS011;12392;42.678;23.380;2023-02-21T14:29:42;1.13;;;0.82;;
24273;SDS011;12392;42.678;23.380;2023-02-21T14:40:01;1.02;;;0.90;;
24273;SDS011;12392;42.678;23.380;2023-02-21T14:48:19;3.67;;;0.68;;
24273;SDS011;12392;42.678;23.380;2023-02-21T14:59:58;2.72;;;0.90;;
24273;SDS011;12392;42.678;23.380;2023-02-21T15:02:46;2.55;;;1.02;;
24273;SDS011;12392;42.678;23.380;2023-02-21T15:07:52;2.70;;;1.38;;
24273;SDS011;12392;42.678;23.380;2023-02-21T15:10:24;4.30;;;1.30;;
24273;SDS011;12392;42.678;23.380;2023-02-21T15:16:10;2.78;;;2.03;;
24273;SDS011;12392;42.678;23.380;2023-02-21T15:18:39;4.00;;;2.00;;
24273;SDS011;12392;42.678;23.380;2023-02-21T15:23:35;3.08;;;1.83;;
24273;SDS011;12392;42.678;23.380;2023-02-21T15:26:18;7.60;;;2.08;;
24273;SDS011;12392;42.678;23.380;2023-02-21T15:31:41;3.80;;;1.48;;
24273;SDS011;12392;42.678;23.380;2023-02-21T15:36:43;2.10;;;1.55;;
24273;SDS011;12392;42.678;23.380;2023-02-21T15:39:13;2.92;;;1.30;;
24273;SDS011;12392;42.678;23.380;2023-02-21T15:41:46;2.40;;;1.17;;
24273;SDS011;12392;42.678;23.380;2023-02-21T15:44:15;5.78;;;1.35;;
24273;SDS011;12392;42.678;23.380;2023-02-21T15:49:30;3.55;;;1.67;;
24273;SDS011;12392;42.678;23.380;2023-02-21T15:52:24;5.10;;;1.60;;
24273;SDS011;12392;42.678;23.380;2023-02-21T15:57:44;4.72;;;1.80;;
24273;SDS011;12392;42.678;23.380;2023-02-21T16:02:48;3.85;;;1.50;;
24273;SDS011;12392;42.678;23.380;2023-02-21T16:05:28;4.85;;;1.95;;
24273;SDS011;12392;42.678;23.380;2023-02-21T16:08:01;6.43;;;2.28;;
24273;SDS011;12392;42.678;23.380;2023-02-21T16:10:28;5.15;;;1.50;;
24273;SDS011;12392;42.678;23.380;2023-02-21T16:12:59;6.72;;;2.45;;
24273;SDS011;12392;42.678;23.380;2023-02-21T16:17:53;4.55;;;2.58;;
24273;SDS011;12392;42.678;23.380;2023-02-21T16:20:22;8.23;;;2.80;;
24273;SDS011;12392;42.678;23.380;2023-02-21T16:28:36;8.23;;;2.90;;
24273;SDS011;12392;42.678;23.380;2023-02-21T16:31:07;5.85;;;2.72;;
24273;SDS011;12392;42.678;23.380;2023-02-21T16:33:36;9.73;;;3.28;;
24273;SDS011;12392;42.678;23.380;2023-02-21T16:36:06;7.10;;;3.15;;
24273;SDS011;12392;42.678;23.380;2023-02-21T16:38:33;4.72;;;2.67;;
24273;SDS011;12392;42.678;23.380;2023-02-21T16:40:59;7.85;;;2.42;;
24273;SDS011;12392;42.678;23.380;2023-02-21T16:43:25;11.85;;;3.45;;
24273;SDS011;12392;42.678;23.380;2023-02-21T16:45:53;7.57;;;3.05;;
24273;SDS011;12392;42.678;23.380;2023-02-21T16:48:21;17.35;;;2.95;;
24273;SDS011;12392;42.678;23.380;2023-02-21T16:50:51;5.55;;;2.42;;
24273;SDS011;12392;42.678;23.380;2023-02-21T16:53:17;9.23;;;2.40;;
24273;SDS011;12392;42.678;23.380;2023-02-21T16:55:43;12.27;;;3.22;;
24273;SDS011;12392;42.678;23.380;2023-02-21T17:01:01;10.68;;;3.05;;
24273;SDS011;12392;42.678;23.380;2023-02-21T17:03:46;4.60;;;2.23;;
24273;SDS011;12392;42.678;23.380;2023-02-21T17:06:20;7.20;;;2.95;;
24273;SDS011;12392;42.678;23.380;2023-02-21T17:08:47;5.35;;;2.60;;
24273;SDS011;12392;42.678;23.380;2023-02-21T17:11:12;9.90;;;2.90;;
24273;SDS011;12392;42.678;23.380;2023-02-21T17:13:38;15.10;;;3.25;;
24273;SDS011;12392;42.678;23.380;2023-02-21T17:16:04;9.30;;;3.58;;
24273;SDS011;12392;42.678;23.380;2023-02-21T17:18:30;12.45;;;4.85;;
24273;SDS011;12392;42.678;23.380;2023-02-21T17:20:56;19.02;;;4.72;;
24273;SDS011;12392;42.678;23.380;2023-02-21T17:23:23;16.25;;;4.50;;
24273;SDS011;12392;42.678;23.380;2023-02-21T17:25:49;14.48;;;3.97;;
24273;SDS011;12392;42.678;23.380;2023-02-21T17:28:14;8.88;;;3.72;;
24273;SDS011;12392;42.678;23.380;2023-02-21T17:30:40;10.40;;;4.28;;
24273;SDS011;12392;42.678;23.380;2023-02-21T17:33:05;11.65;;;5.15;;
24273;SDS011;12392;42.678;23.380;2023-02-21T17:35:32;10.90;;;4.57;;
24273;SDS011;12392;42.678;23.380;2023-02-21T17:37:57;9.77;;;4.50;;
24273;SDS011;12392;42.678;23.380;2023-02-21T17:40:26;12.80;;;5.07;;
24273;SDS011;12392;42.678;23.380;2023-02-21T17:42:53;11.00;;;4.72;;
24273;SDS011;12392;42.678;23.380;2023-02-21T17:45:19;8.13;;;4.55;;
24273;SDS011;12392;42.678;23.380;2023-02-21T17:47:46;11.73;;;4.13;;
24273;SDS011;12392;42.678;23.380;2023-02-21T17:50:12;14.80;;;4.35;;
24273;SDS011;12392;42.678;23.380;2023-02-21T17:52:38;10.45;;;4.30;;
24273;SDS011;12392;42.678;23.380;2023-02-21T17:55:04;8.30;;;4.10;;
24273;SDS011;12392;42.678;23.380;2023-02-21T17:57:35;11.95;;;5.05;;
24273;SDS011;12392;42.678;23.380;2023-02-21T18:00:05;11.82;;;4.93;;
24273;SDS011;12392;42.678;23.380;2023-02-21T18:02:34;23.10;;;4.70;;
24273;SDS011;12392;42.678;23.380;2023-02-21T18:05:00;18.63;;;4.57;;
24273;SDS011;12392;42.678;23.380;2023-02-21T18:07:26;29.48;;;5.63;;
24273;SDS011;12392;42.678;23.380;2023-02-21T18:09:56;41.25;;;6.20;;
24273;SDS011;12392;42.678;23.380;2023-02-21T18:12:27;17.13;;;6.10;;
24273;SDS011;12392;42.678;23.380;2023-02-21T18:14:53;20.23;;;5.30;;
24273;SDS011;12392;42.678;23.380;2023-02-21T18:17:19;21.00;;;6.18;;
24273;SDS011;12392;42.678;23.380;2023-02-21T18:19:45;20.83;;;6.50;;
24273;SDS011;12392;42.678;23.380;2023-02-21T18:22:10;14.90;;;6.45;;
24273;SDS011;12392;42.678;23.380;2023-02-21T18:24:36;20.70;;;5.20;;
24273;SDS011;12392;42.678;23.380;2023-02-21T18:27:04;24.92;;;5.55;;
24273;SDS011;12392;42.678;23.380;2023-02-21T18:29:29;12.10;;;5.18;;